Time;durP1;ratioP1;P1;durP2;ratioP2;P2;SDS_P1;SDS_P2;PMS_P1;PMS_P2;Temp;Humidity;BMP_temperature;BMP_pressure;BME280_temperature;BME280_humidity;BME280_pressure;Samples;Min_cycle;Max_cycle;Signal;HPM_P1;HPM_P2
2020/12/23 00:00:51;;;;;;;0.90;0.90;;;13.40;99.90;;;;;;5051052;28;20288;-72
2020/12/23 00:03:17;;;;;;;0.30;0.30;;;13.40;99.90;;;;;;5042850;28;20174;-72
2020/12/23 00:05:43;;;;;;;0.30;0.23;;;13.40;99.90;;;;;;5053885;28;20185;-71
2020/12/23 00:08:09;;;;;;;0.30;0.30;;;13.40;99.90;;;;;;5052872;28;20177;-72
2020/12/23 00:10:35;;;;;;;0.30;0.20;;;13.40;99.90;;;;;;5051982;28;20266;-71
2020/12/23 00:13:01;;;;;;;0.30;0.20;;;13.40;99.90;;;;;;5053466;28;20214;-71
2020/12/23 00:15:27;;;;;;;0.30;0.20;;;13.40;99.90;;;;;;5053823;28;20248;-71
2020/12/23 00:17:52;;;;;;;0.30;0.20;;;13.30;99.90;;;;;;5052751;28;20925;-71
2020/12/23 00:20:18;;;;;;;0.30;0.20;;;13.30;99.90;;;;;;5052695;28;20240;-72
2020/12/23 00:22:44;;;;;;;0.30;0.23;;;13.40;99.90;;;;;;5051552;28;20193;-73
2020/12/23 00:25:09;;;;;;;0.40;0.40;;;13.40;99.90;;;;;;5053574;28;20411;-70
2020/12/23 00:27:35;;;;;;;0.30;0.20;;;13.40;99.90;;;;;;5053225;28;20189;-72
2020/12/23 00:30:01;;;;;;;0.30;0.20;;;13.40;99.90;;;;;;5053195;28;20660;-71
2020/12/23 00:32:29;;;;;;;0.30;0.20;;;13.40;99.90;;;;;;5050813;28;20225;-73
2020/12/23 00:34:55;;;;;;;0.30;0.30;;;13.50;99.90;;;;;;5053455;28;20175;-71
2020/12/23 00:37:20;;;;;;;0.30;0.30;;;13.50;99.90;;;;;;5053198;28;20414;-73
2020/12/23 00:39:46;;;;;;;0.30;0.30;;;13.60;99.90;;;;;;5052829;28;20263;-72
2020/12/23 00:42:12;;;;;;;0.30;0.30;;;13.60;99.90;;;;;;5053193;28;20189;-73
2020/12/23 00:44:38;;;;;;;0.30;0.30;;;13.70;99.90;;;;;;5034902;28;20421;-71
2020/12/23 00:47:03;;;;;;;0.30;0.20;;;13.80;99.90;;;;;;5031854;28;20200;-71
2020/12/23 00:49:29;;;;;;;0.33;0.33;;;13.80;99.90;;;;;;5049148;28;20185;-74
2020/12/23 00:51:55;;;;;;;0.60;0.60;;;13.90;99.90;;;;;;5052793;28;20192;-72
2020/12/23 00:54:20;;;;;;;0.40;0.40;;;13.90;99.90;;;;;;5052055;28;20598;-71
2020/12/23 00:56:46;;;;;;;0.30;0.30;;;14.00;99.90;;;;;;5053263;28;20193;-71
2020/12/23 00:59:12;;;;;;;0.30;0.30;;;13.90;99.90;;;;;;5052725;28;20179;-72
2020/12/23 01:01:37;;;;;;;1.03;1.03;;;14.00;99.90;;;;;;5052636;28;20244;-71
2020/12/23 01:04:03;;;;;;;0.30;0.20;;;14.00;99.90;;;;;;5051743;28;20183;-71
2020/12/23 01:06:29;;;;;;;0.30;0.20;;;14.00;99.90;;;;;;5053236;28;20199;-71
2020/12/23 01:08:55;;;;;;;0.30;0.30;;;14.00;99.90;;;;;;5052721;28;20774;-71
2020/12/23 01:11:21;;;;;;;0.30;0.20;;;14.00;99.90;;;;;;5050266;28;20203;-71
2020/12/23 01:13:47;;;;;;;0.30;0.27;;;14.00;99.90;;;;;;5052647;28;20183;-70
2020/12/23 01:16:19;;;;;;;0.30;0.30;;;14.00;99.90;;;;;;5052512;28;20400;-69
2020/12/23 01:18:44;;;;;;;0.60;0.50;;;14.00;99.90;;;;;;5052598;28;20426;-70
2020/12/23 01:21:10;;;;;;;0.30;0.20;;;14.00;99.90;;;;;;5051543;28;20461;-71
2020/12/23 01:23:36;;;;;;;0.30;0.30;;;14.00;99.90;;;;;;5052475;28;20183;-71
2020/12/23 01:26:01;;;;;;;0.30;0.20;;;14.00;99.90;;;;;;5052926;28;20628;-71
2020/12/23 01:28:27;;;;;;;0.60;0.60;;;14.00;99.90;;;;;;5052504;28;20238;-72
2020/12/23 01:30:52;;;;;;;0.30;0.20;;;14.00;99.90;;;;;;5052154;28;20192;-72
2020/12/23 01:33:18;;;;;;;0.30;0.30;;;14.00;99.90;;;;;;5043903;28;20255;-70
2020/12/23 01:35:44;;;;;;;0.30;0.30;;;14.00;99.90;;;;;;5056227;28;20203;-71
2020/12/23 01:38:09;;;;;;;0.30;0.30;;;14.10;99.90;;;;;;5056470;28;20180;-71
2020/12/23 01:40:35;;;;;;;0.30;0.30;;;14.10;99.90;;;;;;5056085;28;20199;-71
2020/12/23 01:43:01;;;;;;;0.30;0.20;;;14.10;99.90;;;;;;5055125;28;20179;-71
2020/12/23 01:45:26;;;;;;;0.30;0.30;;;14.10;99.90;;;;;;5056561;28;20169;-71
2020/12/23 01:47:56;;;;;;;0.30;0.20;;;14.10;99.90;;;;;;5056376;28;20230;-71
2020/12/23 01:50:22;;;;;;;0.30;0.20;;;14.10;99.90;;;;;;5055957;28;20179;-71
2020/12/23 01:52:53;;;;;;;0.30;0.30;;;14.10;99.90;;;;;;5055260;28;20447;-72
2020/12/23 01:55:19;;;;;;;0.30;0.30;;;14.10;99.90;;;;;;5056396;28;20436;-72
2020/12/23 01:57:44;;;;;;;0.30;0.20;;;14.10;99.90;;;;;;5056192;28;20411;-71
2020/12/23 02:00:10;;;;;;;0.30;0.23;;;14.10;99.90;;;;;;5054162;28;20462;-72
2020/12/23 02:02:38;;;;;;;0.30;0.20;;;14.10;99.90;;;;;;5054902;28;20191;-70
2020/12/23 02:05:08;;;;;;;0.30;0.30;;;14.20;99.90;;;;;;5054578;28;20226;-70
2020/12/23 02:07:34;;;;;;;0.30;0.20;;;14.20;99.90;;;;;;5056161;28;20411;-71
2020/12/23 02:10:06;;;;;;;0.30;0.30;;;14.20;99.90;;;;;;5055415;28;20410;-71
2020/12/23 02:12:32;;;;;;;0.30;0.30;;;14.20;99.90;;;;;;5054860;28;20516;-72
2020/12/23 02:15:10;;;;;;;0.30;0.20;;;14.20;99.90;;;;;;5055825;28;20897;-71
2020/12/23 02:17:36;;;;;;;0.30;0.30;;;14.30;99.90;;;;;;5054567;28;20265;-71
2020/12/23 02:20:08;;;;;;;0.30;0.30;;;14.30;99.90;;;;;;5053886;28;20454;-71
2020/12/23 02:22:34;;;;;;;0.30;0.20;;;14.20;99.90;;;;;;5044548;28;20440;-71
2020/12/23 02:25:00;;;;;;;0.30;0.20;;;14.20;99.90;;;;;;5037174;28;20400;-71
2020/12/23 02:27:26;;;;;;;0.30;0.30;;;14.20;99.90;;;;;;5054833;28;20486;-71
2020/12/23 02:29:54;;;;;;;0.30;0.30;;;14.20;99.90;;;;;;5036566;28;20396;-71
2020/12/23 02:32:20;;;;;;;0.30;0.30;;;14.30;99.90;;;;;;5055456;28;20483;-71
2020/12/23 02:34:46;;;;;;;0.30;0.20;;;14.30;99.90;;;;;;5055773;28;20409;-71
2020/12/23 02:37:13;;;;;;;0.30;0.20;;;14.30;99.90;;;;;;5054984;28;20438;-72
2020/12/23 02:39:41;;;;;;;0.57;0.57;;;14.30;99.90;;;;;;5054667;28;20457;-72
2020/12/23 02:42:08;;;;;;;0.30;0.30;;;14.30;99.90;;;;;;5054815;28;20484;-72
2020/12/23 02:44:34;;;;;;;0.30;0.30;;;14.40;99.90;;;;;;5055420;28;20936;-71
2020/12/23 02:47:08;;;;;;;0.30;0.20;;;14.40;99.90;;;;;;5055118;28;20449;-72
2020/12/23 02:49:33;;;;;;;0.40;0.40;;;14.50;99.90;;;;;;5054613;28;20438;-71
2020/12/23 02:51:59;;;;;;;0.37;0.37;;;14.50;99.90;;;;;;5054582;28;20446;-71
2020/12/23 02:54:25;;;;;;;0.30;0.30;;;14.60;99.90;;;;;;5054829;28;20179;-71
2020/12/23 02:56:51;;;;;;;0.30;0.30;;;14.60;99.90;;;;;;5055169;28;20180;-72
2020/12/23 02:59:17;;;;;;;0.30;0.20;;;14.60;99.90;;;;;;5053952;28;20460;-71
2020/12/23 03:01:43;;;;;;;0.30;0.20;;;14.60;99.90;;;;;;5053345;28;20530;-71
2020/12/23 03:04:09;;;;;;;0.40;0.40;;;14.60;99.90;;;;;;5053777;28;20424;-71
2020/12/23 03:06:35;;;;;;;0.30;0.20;;;14.60;99.90;;;;;;5054719;28;20778;-71
2020/12/23 03:09:06;;;;;;;0.30;0.20;;;14.60;99.90;;;;;;5041312;28;20175;-72
2020/12/23 03:11:32;;;;;;;0.30;0.20;;;14.70;99.90;;;;;;5053173;28;20431;-70
2020/12/23 03:13:59;;;;;;;0.47;0.47;;;14.70;99.90;;;;;;5054678;28;20418;-72
2020/12/23 03:16:24;;;;;;;0.30;0.30;;;14.70;99.90;;;;;;5053644;28;20498;-71
2020/12/23 03:18:50;;;;;;;0.30;0.30;;;14.70;99.90;;;;;;5054577;28;20448;-72
2020/12/23 03:21:16;;;;;;;0.30;0.30;;;14.70;99.90;;;;;;5054166;28;20466;-73
2020/12/23 03:23:41;;;;;;;0.30;0.20;;;14.70;99.90;;;;;;5054402;28;20211;-71
2020/12/23 03:26:07;;;;;;;0.30;0.20;;;14.80;99.90;;;;;;5051283;28;20176;-72
2020/12/23 03:28:33;;;;;;;1.80;0.67;;;14.80;99.90;;;;;;5034760;28;20172;-71
2020/12/23 03:31:00;;;;;;;0.30;0.30;;;14.80;99.90;;;;;;5053851;28;20242;-71
2020/12/23 03:33:26;;;;;;;0.30;0.20;;;14.80;99.90;;;;;;5054668;28;20419;-71
2020/12/23 03:35:53;;;;;;;0.30;0.20;;;14.80;99.90;;;;;;5053402;28;20458;-71
2020/12/23 03:38:19;;;;;;;0.30;0.20;;;14.80;99.90;;;;;;5054413;28;20421;-72
2020/12/23 03:40:45;;;;;;;0.30;0.30;;;14.90;99.90;;;;;;5053527;28;20853;-70
2020/12/23 03:43:10;;;;;;;0.30;0.20;;;14.90;99.90;;;;;;5054345;28;20452;-73
2020/12/23 03:45:36;;;;;;;0.30;0.20;;;14.90;99.90;;;;;;5054150;28;20191;-71
2020/12/23 03:48:02;;;;;;;0.30;0.20;;;14.80;99.90;;;;;;5053321;28;20176;-71
2020/12/23 03:50:28;;;;;;;0.30;0.30;;;14.80;99.90;;;;;;5053507;28;20266;-71
2020/12/23 03:52:53;;;;;;;0.57;0.57;;;14.90;99.90;;;;;;5054064;28;20510;-71
2020/12/23 03:55:19;;;;;;;0.30;0.20;;;14.90;99.90;;;;;;5053276;28;20184;-72
2020/12/23 03:57:45;;;;;;;0.30;0.20;;;14.90;99.90;;;;;;5053368;28;20187;-72
2020/12/23 04:00:12;;;;;;;0.30;0.20;;;14.90;99.90;;;;;;5053202;28;20295;-71
2020/12/23 04:02:38;;;;;;;0.30;0.20;;;14.90;99.90;;;;;;5053886;28;20193;-72
2020/12/23 04:05:05;;;;;;;0.30;0.20;;;14.90;99.90;;;;;;5054012;28;20377;-71
2020/12/23 04:07:30;;;;;;;0.30;0.20;;;14.90;99.90;;;;;;5052723;28;20418;-71
2020/12/23 04:09:56;;;;;;;0.30;0.20;;;14.80;99.90;;;;;;5053496;28;20494;-72
2020/12/23 04:12:21;;;;;;;0.30;0.30;;;14.90;99.90;;;;;;5052113;28;20196;-72
2020/12/23 04:14:47;;;;;;;0.30;0.20;;;14.80;99.90;;;;;;5053794;28;20623;-73
2020/12/23 04:17:13;;;;;;;0.30;0.30;;;14.80;99.90;;;;;;5052628;28;20259;-72
2020/12/23 04:19:38;;;;;;;0.30;0.30;;;14.80;99.90;;;;;;5053750;28;20203;-70
2020/12/23 04:22:04;;;;;;;0.30;0.30;;;14.80;99.90;;;;;;5052867;28;20204;-72
2020/12/23 04:24:30;;;;;;;0.30;0.20;;;14.80;99.90;;;;;;5051458;28;20177;-72
2020/12/23 04:26:56;;;;;;;0.30;0.30;;;14.80;99.90;;;;;;5053444;28;20218;-71
2020/12/23 04:29:22;;;;;;;0.30;0.20;;;14.80;99.90;;;;;;5052956;28;20181;-71
2020/12/23 04:31:47;;;;;;;0.30;0.30;;;14.80;99.90;;;;;;5051428;28;20435;-71
2020/12/23 04:34:13;;;;;;;0.30;0.30;;;14.80;99.90;;;;;;5053291;28;20177;-71
2020/12/23 04:36:40;;;;;;;0.30;0.20;;;14.80;99.90;;;;;;5053381;28;20229;-70
2020/12/23 04:39:05;;;;;;;0.30;0.27;;;14.60;99.90;;;;;;5052162;28;20544;-71
2020/12/23 04:41:34;;;;;;;0.30;0.30;;;14.60;99.90;;;;;;5051586;28;20477;-71
2020/12/23 04:44:03;;;;;;;0.30;0.30;;;14.50;99.90;;;;;;5053154;28;20644;-70
2020/12/23 04:46:33;;;;;;;0.30;0.30;;;14.50;99.90;;;;;;5052147;28;20751;-71
2020/12/23 04:49:00;;;;;;;0.30;0.30;;;14.50;99.90;;;;;;5035842;28;20422;-70
2020/12/23 04:51:28;;;;;;;1.13;1.13;;;14.40;99.90;;;;;;5033028;28;20439;-71
2020/12/23 04:53:54;;;;;;;0.30;0.20;;;14.40;99.90;;;;;;5051733;28;20440;-70
2020/12/23 04:56:20;;;;;;;0.30;0.20;;;14.30;99.90;;;;;;5052456;28;20433;-70
2020/12/23 04:58:46;;;;;;;0.30;0.30;;;14.30;99.90;;;;;;5052992;28;20453;-70
2020/12/23 05:01:13;;;;;;;0.30;0.20;;;14.30;99.90;;;;;;5052460;28;20536;-71
2020/12/23 05:03:40;;;;;;;0.30;0.30;;;14.30;99.90;;;;;;5051991;28;20176;-71
2020/12/23 05:06:08;;;;;;;0.30;0.30;;;14.40;99.90;;;;;;5054146;28;20449;-70
2020/12/23 05:08:35;;;;;;;0.30;0.30;;;14.30;99.90;;;;;;5057057;28;20470;-71
2020/12/23 05:11:18;;;;;;;0.40;0.40;;;14.30;99.90;;;;;;5055442;28;20867;-70
2020/12/23 05:13:44;;;;;;;0.30;0.20;;;14.40;99.90;;;;;;5055921;28;20450;-70
2020/12/23 05:16:12;;;;;;;0.30;0.30;;;14.30;99.90;;;;;;5055820;28;20462;-70
2020/12/23 05:18:41;;;;;;;0.30;0.30;;;14.30;99.90;;;;;;5056797;28;20426;-71
2020/12/23 05:21:17;;;;;;;0.30;0.30;;;14.30;99.90;;;;;;5056427;28;20994;-71
2020/12/23 05:23:47;;;;;;;0.30;0.30;;;14.30;99.90;;;;;;5055911;28;20504;-70
2020/12/23 05:26:15;;;;;;;0.30;0.30;;;14.30;99.90;;;;;;5057009;28;20440;-72
2020/12/23 05:28:43;;;;;;;0.30;0.20;;;14.30;99.90;;;;;;5056272;28;20421;-71
2020/12/23 05:31:14;;;;;;;0.30;0.20;;;14.30;99.90;;;;;;5056548;28;20465;-71
2020/12/23 05:33:43;;;;;;;0.30;0.20;;;14.30;99.90;;;;;;5055685;28;20514;-71
2020/12/23 05:36:11;;;;;;;0.30;0.20;;;14.30;99.90;;;;;;5056977;28;20425;-71
2020/12/23 05:38:37;;;;;;;0.30;0.30;;;14.30;99.90;;;;;;5055142;28;20426;-73
2020/12/23 05:41:06;;;;;;;0.30;0.30;;;14.20;99.90;;;;;;5054000;28;20473;-72
2020/12/23 05:43:32;;;;;;;0.30;0.30;;;14.30;99.90;;;;;;5056294;28;20421;-72
2020/12/23 05:46:00;;;;;;;0.30;0.30;;;14.20;99.90;;;;;;5056133;28;20788;-70
2020/12/23 05:48:31;;;;;;;0.30;0.30;;;14.20;99.90;;;;;;5056499;28;20429;-71
2020/12/23 05:50:57;;;;;;;0.30;0.30;;;14.20;99.90;;;;;;5055852;28;21003;-70
2020/12/23 05:53:27;;;;;;;0.30;0.20;;;14.20;99.90;;;;;;5055454;28;20462;-69
2020/12/23 05:55:53;;;;;;;0.30;0.30;;;14.20;99.90;;;;;;5056338;28;20172;-71
2020/12/23 05:58:23;;;;;;;0.30;0.20;;;14.20;99.90;;;;;;5056615;28;20417;-72
2020/12/23 06:00:51;;;;;;;0.30;0.30;;;14.20;99.90;;;;;;5054583;28;20500;-71
2020/12/23 06:03:38;;;;;;;0.30;0.20;;;14.30;99.90;;;;;;5056372;28;20415;-71
2020/12/23 06:06:04;;;;;;;0.30;0.30;;;14.30;99.90;;;;;;5055823;28;20767;-71
2020/12/23 06:08:32;;;;;;;0.30;0.20;;;14.30;99.90;;;;;;5055415;28;20415;-71
2020/12/23 06:11:30;;;;;;;0.50;0.50;;;14.40;99.90;;;;;;5054677;28;20447;-71
2020/12/23 06:14:14;;;;;;;0.30;0.20;;;14.40;99.90;;;;;;5056167;28;20409;-71
2020/12/23 06:17:02;;;;;;;0.30;0.20;;;14.40;99.90;;;;;;5055731;28;20426;-72
2020/12/23 06:19:38;;;;;;;0.30;0.30;;;14.30;99.90;;;;;;5036639;28;20422;-71
2020/12/23 06:22:06;;;;;;;0.30;0.30;;;14.30;99.90;;;;;;5053769;28;20452;-71
2020/12/23 06:24:33;;;;;;;0.30;0.20;;;14.20;99.90;;;;;;5055966;28;20418;-71
2020/12/23 06:27:02;;;;;;;0.30;0.20;;;14.20;99.90;;;;;;5055381;28;20504;-71
2020/12/23 06:29:30;;;;;;;0.30;0.20;;;14.20;99.90;;;;;;5055002;28;20779;-71
2020/12/23 06:32:00;;;;;;;0.30;0.30;;;14.10;99.90;;;;;;5055075;28;20491;-72
2020/12/23 06:34:34;;;;;;;0.30;0.20;;;14.10;99.90;;;;;;5054459;28;20423;-72
2020/12/23 06:37:13;;;;;;;0.30;0.30;;;14.10;99.90;;;;;;5054381;28;20416;-71
2020/12/23 06:39:40;;;;;;;0.50;0.40;;;14.10;99.90;;;;;;5055448;28;20857;-71
2020/12/23 06:42:05;;;;;;;0.30;0.30;;;14.10;99.90;;;;;;5054856;28;20519;-71
2020/12/23 06:44:43;;;;;;;0.30;0.30;;;14.10;99.90;;;;;;5055549;28;21001;-71
2020/12/23 06:47:17;;;;;;;0.30;0.30;;;14.00;99.90;;;;;;5053862;28;20595;-72
2020/12/23 06:49:48;;;;;;;0.30;0.30;;;14.00;99.90;;;;;;5053385;28;20422;-72
2020/12/23 06:52:24;;;;;;;0.30;0.20;;;13.90;99.90;;;;;;5052118;28;20828;-71
2020/12/23 06:55:04;;;;;;;0.30;0.20;;;13.90;99.90;;;;;;5033508;28;20436;-72
2020/12/23 06:57:38;;;;;;;0.37;0.37;;;14.00;99.90;;;;;;5036270;28;20435;-71
2020/12/23 07:00:25;;;;;;;0.40;0.40;;;13.90;99.90;;;;;;5052386;28;21358;-74
2020/12/23 07:02:51;;;;;;;0.30;0.30;;;13.90;99.90;;;;;;5051876;28;20561;-71
2020/12/23 07:05:22;;;;;;;0.30;0.20;;;14.00;99.90;;;;;;5052998;28;20940;-71
2020/12/23 07:07:56;;;;;;;0.30;0.30;;;14.00;99.90;;;;;;5053236;28;20908;-71
2020/12/23 07:10:27;;;;;;;0.30;0.30;;;14.00;99.90;;;;;;5052776;28;20860;-70
2020/12/23 07:12:59;;;;;;;0.30;0.20;;;14.00;99.90;;;;;;5053169;28;20568;-73
2020/12/23 07:15:35;;;;;;;0.30;0.20;;;14.00;99.90;;;;;;5052439;28;20428;-73
2020/12/23 07:18:04;;;;;;;0.30;0.30;;;14.00;99.90;;;;;;5052734;28;20409;-72
2020/12/23 07:20:33;;;;;;;0.30;0.20;;;14.00;99.90;;;;;;5052674;28;20824;-72
2020/12/23 07:23:04;;;;;;;0.30;0.20;;;14.10;99.90;;;;;;5053485;28;20429;-70
2020/12/23 07:25:33;;;;;;;0.30;0.20;;;14.10;99.90;;;;;;5054699;28;20405;-72
2020/12/23 07:27:59;;;;;;;0.60;0.60;;;14.10;99.90;;;;;;5053017;28;20420;-71
2020/12/23 07:30:26;;;;;;;0.30;0.20;;;14.10;99.90;;;;;;5052952;28;20928;-73
2020/12/23 07:33:21;;;;;;;0.30;0.30;;;14.20;99.90;;;;;;5052057;28;20197;-73
2020/12/23 07:35:49;;;;;;;0.30;0.20;;;14.20;99.90;;;;;;5021778;28;20430;-72
2020/12/23 07:38:17;;;;;;;0.30;0.20;;;14.30;99.90;;;;;;5035957;28;20445;-73
2020/12/23 07:40:43;;;;;;;0.30;0.30;;;14.30;99.90;;;;;;5051884;28;20572;-72
2020/12/23 07:43:11;;;;;;;0.30;0.30;;;14.30;99.90;;;;;;5054221;28;20435;-74
2020/12/23 07:45:37;;;;;;;0.30;0.30;;;14.30;99.90;;;;;;5054168;28;20404;-73
2020/12/23 07:48:07;;;;;;;0.30;0.20;;;14.40;99.90;;;;;;5052644;28;20415;-74
2020/12/23 07:50:39;;;;;;;0.30;0.30;;;14.40;99.90;;;;;;5053066;28;20226;-76
2020/12/23 07:53:11;;;;;;;0.30;0.27;;;14.40;99.90;;;;;;5054094;28;20929;-75
2020/12/23 07:55:38;;;;;;;0.30;0.30;;;14.50;99.90;;;;;;5054290;28;20432;-74
2020/12/23 07:58:04;;;;;;;0.30;0.30;;;14.50;99.90;;;;;;5053959;28;20431;-74
2020/12/23 08:00:30;;;;;;;0.30;0.20;;;14.50;99.90;;;;;;5052650;28;20519;-73
2020/12/23 08:02:56;;;;;;;0.30;0.30;;;14.50;99.90;;;;;;5035712;28;20923;-72
2020/12/23 08:05:23;;;;;;;0.30;0.20;;;14.50;99.90;;;;;;5052696;28;20597;-75
2020/12/23 08:07:48;;;;;;;0.30;0.20;;;14.50;99.90;;;;;;5054114;28;20262;-72
2020/12/23 08:10:19;;;;;;;0.30;0.20;;;14.60;99.90;;;;;;5051218;28;20461;-74
2020/12/23 08:13:00;;;;;;;0.30;0.20;;;14.60;99.90;;;;;;5053811;28;20195;-71
2020/12/23 08:15:26;;;;;;;0.30;0.20;;;14.60;99.90;;;;;;5033887;28;20461;-73
2020/12/23 08:18:01;;;;;;;0.30;0.23;;;14.60;99.90;;;;;;5032555;28;20458;-72
2020/12/23 08:20:27;;;;;;;0.30;0.20;;;14.60;99.90;;;;;;5040876;28;20463;-76
2020/12/23 08:22:53;;;;;;;0.30;0.30;;;14.60;99.90;;;;;;5053633;28;20422;-75
2020/12/23 08:25:20;;;;;;;0.30;0.30;;;14.70;99.90;;;;;;5053179;28;20429;-73
2020/12/23 08:27:51;;;;;;;0.30;0.30;;;14.70;99.90;;;;;;5052905;28;20183;-69
2020/12/23 08:30:23;;;;;;;0.30;0.20;;;14.70;99.90;;;;;;5051465;28;20430;-72
2020/12/23 08:33:10;;;;;;;0.30;0.30;;;14.70;99.90;;;;;;5052513;28;20433;-71
2020/12/23 08:35:41;;;;;;;0.60;0.53;;;14.80;99.90;;;;;;5052237;28;20429;-72
2020/12/23 08:38:26;;;;;;;0.30;0.20;;;14.80;99.90;;;;;;5052481;28;20789;-71
2020/12/23 08:40:53;;;;;;;0.30;0.20;;;14.80;99.90;;;;;;5031232;28;20524;-69
2020/12/23 08:43:30;;;;;;;0.30;0.20;;;14.80;99.90;;;;;;5034257;28;20410;-70
2020/12/23 08:46:00;;;;;;;0.30;0.30;;;14.80;99.90;;;;;;5038468;28;20529;-71
2020/12/23 08:48:28;;;;;;;0.30;0.30;;;14.80;99.90;;;;;;5052347;28;20422;-69
2020/12/23 08:50:59;;;;;;;0.30;0.30;;;14.80;99.90;;;;;;5052759;28;20442;-71
2020/12/23 08:53:35;;;;;;;0.30;0.30;;;14.90;99.90;;;;;;5039867;28;20438;-70
2020/12/23 08:56:22;;;;;;;0.30;0.30;;;14.90;99.90;;;;;;5052744;28;20453;-70
2020/12/23 08:58:50;;;;;;;0.30;0.30;;;14.90;99.90;;;;;;5051718;28;20793;-69
2020/12/23 09:01:23;;;;;;;0.30;0.30;;;14.90;99.90;;;;;;5050797;28;20478;-69
2020/12/23 09:04:00;;;;;;;0.30;0.30;;;14.90;99.90;;;;;;5052902;28;20477;-71
2020/12/23 09:06:26;;;;;;;0.30;0.20;;;15.00;99.90;;;;;;5049630;28;20449;-71
2020/12/23 09:08:51;;;;;;;0.30;0.20;;;15.00;99.90;;;;;;5046480;28;20427;-70
2020/12/23 09:11:17;;;;;;;0.40;0.40;;;15.00;99.90;;;;;;5052111;28;20200;-73
2020/12/23 09:13:43;;;;;;;0.30;0.30;;;15.00;99.90;;;;;;5052449;28;20180;-69
2020/12/23 09:16:14;;;;;;;0.30;0.20;;;15.10;99.90;;;;;;5052966;28;20182;-70
2020/12/23 09:18:49;;;;;;;0.30;0.30;;;15.10;99.90;;;;;;5041205;28;20182;-70
2020/12/23 09:21:19;;;;;;;0.40;0.40;;;15.10;99.90;;;;;;5032779;28;20546;-71
2020/12/23 09:23:44;;;;;;;0.30;0.20;;;15.10;99.90;;;;;;5033051;28;20896;-69
2020/12/23 09:26:16;;;;;;;1.47;1.47;;;15.10;99.90;;;;;;5033138;28;20449;-70
2020/12/23 09:28:42;;;;;;;0.30;0.20;;;15.10;99.90;;;;;;5044328;28;20820;-71
2020/12/23 09:31:08;;;;;;;0.30;0.30;;;15.20;99.90;;;;;;5052323;28;20484;-68
2020/12/23 09:33:41;;;;;;;0.63;0.63;;;15.20;99.90;;;;;;5052940;28;20203;-68
2020/12/23 09:36:08;;;;;;;0.30;0.20;;;15.20;99.90;;;;;;5048889;28;20537;-69
2020/12/23 09:38:34;;;;;;;0.30;0.20;;;15.20;99.90;;;;;;5032761;28;20485;-69
2020/12/23 09:41:02;;;;;;;0.97;0.97;;;15.20;99.90;;;;;;5032342;28;20598;-70
2020/12/23 09:43:31;;;;;;;0.30;0.30;;;15.20;99.90;;;;;;5032864;28;20416;-69
2020/12/23 09:45:58;;;;;;;0.30;0.30;;;15.20;99.90;;;;;;5034572;28;20506;-70
2020/12/23 09:48:25;;;;;;;0.30;0.20;;;15.20;99.90;;;;;;5052984;28;20407;-71
2020/12/23 09:50:52;;;;;;;0.30;0.20;;;15.20;99.90;;;;;;5052138;28;20434;-73
2020/12/23 09:53:19;;;;;;;0.30;0.20;;;15.20;99.90;;;;;;5052744;28;20799;-69
2020/12/23 09:55:46;;;;;;;0.30;0.30;;;15.20;99.90;;;;;;5046849;28;20819;-71
2020/12/23 09:58:12;;;;;;;0.30;0.30;;;15.30;99.90;;;;;;5036440;28;20495;-69
2020/12/23 10:00:39;;;;;;;0.30;0.30;;;15.30;99.90;;;;;;5035543;28;20467;-70
2020/12/23 10:03:05;;;;;;;0.30;0.20;;;15.30;99.90;;;;;;5036350;28;20416;-70
2020/12/23 10:05:31;;;;;;;0.30;0.30;;;15.40;99.90;;;;;;5043042;28;20426;-70
2020/12/23 10:07:58;;;;;;;0.30;0.27;;;15.40;99.90;;;;;;5056221;28;20415;-69
2020/12/23 10:10:23;;;;;;;0.50;0.50;;;15.40;99.90;;;;;;5055774;28;20423;-71
2020/12/23 10:12:49;;;;;;;0.30;0.30;;;15.40;99.90;;;;;;5056031;28;20751;-70
2020/12/23 10:15:15;;;;;;;0.30;0.30;;;15.40;99.90;;;;;;5052255;28;20205;-70
2020/12/23 10:17:41;;;;;;;0.30;0.30;;;15.30;99.90;;;;;;5036132;28;20263;-71
2020/12/23 10:20:08;;;;;;;0.30;0.30;;;15.30;99.90;;;;;;5035955;28;20559;-70
2020/12/23 10:22:35;;;;;;;0.30;0.20;;;15.30;99.90;;;;;;5035662;28;20199;-68
2020/12/23 10:25:02;;;;;;;0.30;0.30;;;15.30;99.90;;;;;;5036893;28;20403;-70
2020/12/23 10:27:28;;;;;;;0.30;0.20;;;15.30;99.90;;;;;;5055851;28;20801;-71
2020/12/23 10:29:53;;;;;;;0.30;0.30;;;15.30;99.90;;;;;;5055361;28;20502;-70
2020/12/23 10:32:19;;;;;;;0.30;0.20;;;15.20;99.90;;;;;;5054068;28;20378;-71
2020/12/23 10:34:45;;;;;;;0.30;0.30;;;15.20;99.90;;;;;;5041258;28;20188;-70
2020/12/23 10:37:11;;;;;;;0.30;0.30;;;15.20;99.90;;;;;;5036370;28;20543;-70
2020/12/23 10:39:37;;;;;;;0.30;0.20;;;15.20;99.90;;;;;;5035354;28;20495;-70
2020/12/23 10:42:03;;;;;;;0.30;0.30;;;15.20;99.90;;;;;;5038763;28;20685;-70
2020/12/23 10:44:28;;;;;;;0.30;0.20;;;15.30;99.90;;;;;;5054293;28;20644;-70
2020/12/23 10:46:58;;;;;;;0.43;0.43;;;15.30;99.90;;;;;;5055548;28;20595;-70
2020/12/23 10:49:25;;;;;;;0.30;0.20;;;15.40;99.90;;;;;;5055394;28;20563;-71
2020/12/23 10:51:55;;;;;;;0.30;0.20;;;15.40;99.90;;;;;;5038876;28;20502;-69
2020/12/23 10:54:21;;;;;;;0.30;0.20;;;15.40;99.90;;;;;;5035989;28;20463;-71
2020/12/23 10:56:47;;;;;;;0.30;0.30;;;15.50;99.90;;;;;;5035286;28;20413;-70
2020/12/23 10:59:12;;;;;;;0.30;0.20;;;15.50;99.90;;;;;;5051959;28;20193;-71
2020/12/23 11:01:38;;;;;;;0.30;0.30;;;15.60;99.90;;;;;;5054674;28;20205;-70
2020/12/23 11:04:04;;;;;;;0.30;0.30;;;15.60;99.90;;;;;;5055045;28;20566;-71
2020/12/23 11:06:30;;;;;;;0.30;0.20;;;15.70;99.90;;;;;;5047131;28;20188;-70
2020/12/23 11:08:57;;;;;;;0.30;0.20;;;15.70;99.90;;;;;;5035104;28;20404;-70
2020/12/23 11:11:23;;;;;;;0.30;0.23;;;15.70;99.90;;;;;;5034551;28;20431;-70
2020/12/23 11:13:49;;;;;;;0.30;0.30;;;15.70;99.90;;;;;;5035155;28;20944;-69
2020/12/23 11:16:15;;;;;;;0.57;0.57;;;15.70;99.90;;;;;;5040528;28;20514;-70
2020/12/23 11:18:42;;;;;;;0.30;0.20;;;15.80;99.90;;;;;;5055256;28;20536;-72
2020/12/23 11:21:09;;;;;;;0.30;0.30;;;15.80;99.90;;;;;;5054248;28;20474;-71
2020/12/23 11:23:35;;;;;;;0.30;0.20;;;15.80;99.90;;;;;;5054724;28;20775;-69
2020/12/23 11:26:01;;;;;;;0.30;0.30;;;15.80;99.90;;;;;;5051744;28;20423;-71
2020/12/23 11:28:29;;;;;;;0.30;0.30;;;15.70;99.90;;;;;;5034743;28;20495;-72
2020/12/23 11:30:59;;;;;;;0.30;0.30;;;15.70;99.90;;;;;;5034394;28;21008;-71
2020/12/23 11:33:25;;;;;;;0.50;0.50;;;15.60;99.90;;;;;;5034528;28;20432;-70
2020/12/23 11:35:51;;;;;;;0.30;0.30;;;15.50;99.90;;;;;;5035853;28;20416;-71
2020/12/23 11:38:16;;;;;;;0.30;0.30;;;15.40;99.90;;;;;;5054090;28;20765;-69
2020/12/23 11:40:42;;;;;;;0.33;0.33;;;15.50;99.90;;;;;;5053785;28;20684;-69
2020/12/23 11:43:08;;;;;;;0.30;0.30;;;15.40;99.90;;;;;;5052899;28;20633;-70
2020/12/23 11:45:33;;;;;;;0.30;0.20;;;15.50;99.90;;;;;;5052743;28;20183;-70
2020/12/23 11:47:59;;;;;;;0.30;0.30;;;15.40;99.90;;;;;;5033543;28;20185;-70
2020/12/23 11:50:24;;;;;;;0.30;0.30;;;15.30;99.90;;;;;;5033534;28;20169;-70
2020/12/23 11:52:50;;;;;;;0.30;0.27;;;15.30;99.90;;;;;;5034262;28;20200;-70
2020/12/23 11:55:18;;;;;;;0.30;0.20;;;15.20;99.90;;;;;;5034246;28;20264;-68
2020/12/23 11:57:45;;;;;;;0.30;0.27;;;15.10;99.90;;;;;;5045113;28;20173;-69
2020/12/23 12:00:11;;;;;;;0.30;0.20;;;15.10;99.90;;;;;;5033605;28;20812;-70
2020/12/23 12:02:40;;;;;;;0.30;0.20;;;15.10;99.90;;;;;;5033928;28;20427;-70
2020/12/23 12:05:08;;;;;;;0.30;0.30;;;15.00;99.90;;;;;;5033864;28;20315;-69
2020/12/23 12:07:34;;;;;;;0.30;0.30;;;14.90;99.90;;;;;;5036232;28;20439;-69
2020/12/23 12:10:00;;;;;;;0.90;0.90;;;14.90;99.90;;;;;;5046402;28;20427;-70
2020/12/23 12:12:26;;;;;;;0.30;0.30;;;14.90;99.90;;;;;;5035411;28;20673;-71
2020/12/23 12:14:52;;;;;;;0.30;0.30;;;14.80;99.90;;;;;;5053578;28;20227;-70
2020/12/23 12:17:18;;;;;;;0.30;0.30;;;14.80;99.90;;;;;;5053342;28;20406;-70
2020/12/23 12:19:43;;;;;;;0.30;0.20;;;14.80;99.90;;;;;;5053547;28;20414;-68
2020/12/23 12:22:09;;;;;;;0.30;0.30;;;14.90;99.90;;;;;;5053271;28;20193;-70
2020/12/23 12:24:35;;;;;;;0.30;0.20;;;14.90;99.90;;;;;;5035276;28;20180;-70
2020/12/23 12:27:01;;;;;;;0.30;0.30;;;14.90;99.90;;;;;;5033460;28;20256;-70
2020/12/23 12:29:27;;;;;;;0.30;0.30;;;14.90;99.90;;;;;;5033505;28;20434;-70
2020/12/23 12:31:53;;;;;;;0.30;0.30;;;14.90;99.90;;;;;;5032869;28;20224;-70
2020/12/23 12:34:19;;;;;;;0.50;0.50;;;14.90;99.90;;;;;;5049996;28;20449;-69
2020/12/23 12:36:45;;;;;;;0.30;0.30;;;15.00;99.90;;;;;;5053342;28;20165;-70
2020/12/23 12:39:10;;;;;;;0.30;0.30;;;15.00;99.90;;;;;;5052202;28;20986;-72
2020/12/23 12:41:36;;;;;;;0.30;0.20;;;15.00;99.90;;;;;;5051474;28;20525;-70
2020/12/23 12:44:02;;;;;;;0.50;0.40;;;15.00;99.90;;;;;;5035508;28;20177;-72
2020/12/23 12:46:27;;;;;;;0.43;0.43;;;15.10;99.90;;;;;;5033410;28;20541;-72
2020/12/23 12:48:53;;;;;;;0.30;0.20;;;15.10;99.90;;;;;;5033317;28;20170;-71
2020/12/23 12:51:29;;;;;;;0.40;0.40;;;15.10;99.90;;;;;;5036805;28;20207;-71